sensor_id;sensor_type;location;lat;lon;timestamp;P1;durP1;ratioP1;P2;durP2;ratioP2
2542;SDS011;1116;51.502;7.414;2024-03-17T00:00:39;5.53;;;4.47;;
2542;SDS011;1116;51.502;7.414;2024-03-17T00:03:08;6.77;;;5.00;;
2542;SDS011;1116;51.502;7.414;2024-03-17T00:05:34;6.13;;;4.30;;
2542;SDS011;1116;51.502;7.414;2024-03-17T00:08:06;7.83;;;4.40;;
2542;SDS011;1116;51.502;7.414;2024-03-17T00:10:33;7.27;;;4.23;;
2542;SDS011;1116;51.502;7.414;2024-03-17T00:13:02;7.33;;;4.70;;
2542;SDS011;1116;51.502;7.414;2024-03-17T00:15:29;7.07;;;4.20;;
2542;SDS011;1116;51.502;7.414;2024-03-17T00:17:58;5.50;;;4.10;;
2542;SDS011;1116;51.502;7.414;2024-03-17T00:20:24;5.00;;;4.00;;
2542;SDS011;1116;51.502;7.414;2024-03-17T00:22:54;5.13;;;4.00;;
2542;SDS011;1116;51.502;7.414;2024-03-17T00:25:23;8.00;;;4.40;;
2542;SDS011;1116;51.502;7.414;2024-03-17T00:27:52;8.33;;;4.50;;
2542;SDS011;1116;51.502;7.414;2024-03-17T00:30:20;7.60;;;3.97;;
2542;SDS011;1116;51.502;7.414;2024-03-17T00:32:49;5.60;;;4.80;;
2542;SDS011;1116;51.502;7.414;2024-03-17T00:35:15;7.23;;;4.50;;
2542;SDS011;1116;51.502;7.414;2024-03-17T00:37:46;10.53;;;4.80;;
2542;SDS011;1116;51.502;7.414;2024-03-17T00:40:12;7.40;;;5.50;;
2542;SDS011;1116;51.502;7.414;2024-03-17T00:42:44;8.20;;;4.63;;
2542;SDS011;1116;51.502;7.414;2024-03-17T00:45:10;7.13;;;5.47;;
2542;SDS011;1116;51.502;7.414;2024-03-17T00:47:39;7.40;;;4.97;;
2542;SDS011;1116;51.502;7.414;2024-03-17T00:50:06;6.87;;;5.20;;
2542;SDS011;1116;51.502;7.414;2024-03-17T00:52:36;8.40;;;5.20;;
2542;SDS011;1116;51.502;7.414;2024-03-17T00:55:03;6.43;;;5.40;;
2542;SDS011;1116;51.502;7.414;2024-03-17T00:57:32;10.13;;;5.43;;
2542;SDS011;1116;51.502;7.414;2024-03-17T01:00:01;9.13;;;5.90;;
2542;SDS011;1116;51.502;7.414;2024-03-17T01:02:31;10.80;;;5.60;;
2542;SDS011;1116;51.502;7.414;2024-03-17T01:04:58;7.23;;;5.00;;
2542;SDS011;1116;51.502;7.414;2024-03-17T01:07:26;7.37;;;5.07;;
2542;SDS011;1116;51.502;7.414;2024-03-17T01:09:53;10.10;;;5.57;;
2542;SDS011;1116;51.502;7.414;2024-03-17T01:12:22;7.37;;;5.10;;
2542;SDS011;1116;51.502;7.414;2024-03-17T01:14:48;11.73;;;5.83;;
2542;SDS011;1116;51.502;7.414;2024-03-17T01:17:20;8.80;;;5.10;;
2542;SDS011;1116;51.502;7.414;2024-03-17T01:19:47;8.40;;;5.20;;
2542;SDS011;1116;51.502;7.414;2024-03-17T01:22:17;6.77;;;4.97;;
2542;SDS011;1116;51.502;7.414;2024-03-17T01:24:43;8.40;;;5.20;;
2542;SDS011;1116;51.502;7.414;2024-03-17T01:27:12;6.40;;;5.10;;
2542;SDS011;1116;51.502;7.414;2024-03-17T01:29:41;6.30;;;5.40;;
2542;SDS011;1116;51.502;7.414;2024-03-17T01:32:10;9.77;;;4.73;;
2542;SDS011;1116;51.502;7.414;2024-03-17T01:34:39;9.77;;;5.70;;
2542;SDS011;1116;51.502;7.414;2024-03-17T01:37:08;8.00;;;5.30;;
2542;SDS011;1116;51.502;7.414;2024-03-17T01:39:34;7.77;;;5.10;;
2542;SDS011;1116;51.502;7.414;2024-03-17T01:42:04;9.20;;;4.93;;
2542;SDS011;1116;51.502;7.414;2024-03-17T01:44:30;9.10;;;5.13;;
2542;SDS011;1116;51.502;7.414;2024-03-17T01:46:59;8.03;;;5.13;;
2542;SDS011;1116;51.502;7.414;2024-03-17T01:49:30;9.13;;;5.73;;
2542;SDS011;1116;51.502;7.414;2024-03-17T01:52:02;6.27;;;5.03;;
2542;SDS011;1116;51.502;7.414;2024-03-17T01:54:30;9.20;;;5.47;;
2542;SDS011;1116;51.502;7.414;2024-03-17T01:57:00;7.10;;;5.23;;
2542;SDS011;1116;51.502;7.414;2024-03-17T01:59:26;5.73;;;4.93;;
2542;SDS011;1116;51.502;7.414;2024-03-17T02:01:55;7.23;;;5.03;;
2542;SDS011;1116;51.502;7.414;2024-03-17T02:04:22;8.07;;;5.00;;
2542;SDS011;1116;51.502;7.414;2024-03-17T02:06:51;9.30;;;5.40;;
2542;SDS011;1116;51.502;7.414;2024-03-17T02:09:20;12.30;;;5.33;;
2542;SDS011;1116;51.502;7.414;2024-03-17T02:11:50;8.17;;;4.50;;
2542;SDS011;1116;51.502;7.414;2024-03-17T02:14:17;5.47;;;4.97;;
2542;SDS011;1116;51.502;7.414;2024-03-17T02:16:46;8.40;;;5.60;;
2542;SDS011;1116;51.502;7.414;2024-03-17T02:19:13;6.63;;;5.10;;
2542;SDS011;1116;51.502;7.414;2024-03-17T02:21:42;7.50;;;5.20;;
2542;SDS011;1116;51.502;7.414;2024-03-17T02:24:11;7.00;;;5.13;;
2542;SDS011;1116;51.502;7.414;2024-03-17T02:26:40;8.93;;;5.60;;
2542;SDS011;1116;51.502;7.414;2024-03-17T02:29:06;9.00;;;4.50;;
2542;SDS011;1116;51.502;7.414;2024-03-17T02:31:35;6.20;;;5.43;;
2542;SDS011;1116;51.502;7.414;2024-03-17T02:34:01;8.33;;;5.00;;
2542;SDS011;1116;51.502;7.414;2024-03-17T02:36:30;7.97;;;5.30;;
2542;SDS011;1116;51.502;7.414;2024-03-17T02:38:57;7.47;;;5.47;;
2542;SDS011;1116;51.502;7.414;2024-03-17T02:41:44;7.23;;;5.37;;
2542;SDS011;1116;51.502;7.414;2024-03-17T02:44:13;10.40;;;5.70;;
2542;SDS011;1116;51.502;7.414;2024-03-17T02:46:42;8.23;;;5.73;;
2542;SDS011;1116;51.502;7.414;2024-03-17T02:49:12;7.57;;;5.50;;
2542;SDS011;1116;51.502;7.414;2024-03-17T02:51:43;7.20;;;5.37;;
2542;SDS011;1116;51.502;7.414;2024-03-17T02:54:12;7.87;;;5.90;;
2542;SDS011;1116;51.502;7.414;2024-03-17T02:56:44;8.10;;;5.90;;
2542;SDS011;1116;51.502;7.414;2024-03-17T02:59:12;10.97;;;5.30;;
2542;SDS011;1116;51.502;7.414;2024-03-17T03:01:42;9.20;;;5.70;;
2542;SDS011;1116;51.502;7.414;2024-03-17T03:04:11;9.13;;;5.83;;
2542;SDS011;1116;51.502;7.414;2024-03-17T03:06:41;7.73;;;5.47;;
2542;SDS011;1116;51.502;7.414;2024-03-17T03:09:10;7.77;;;6.10;;
2542;SDS011;1116;51.502;7.414;2024-03-17T03:11:48;6.90;;;5.57;;
2542;SDS011;1116;51.502;7.414;2024-03-17T03:14:17;7.87;;;5.93;;
2542;SDS011;1116;51.502;7.414;2024-03-17T03:16:47;7.97;;;6.37;;
2542;SDS011;1116;51.502;7.414;2024-03-17T03:19:16;8.23;;;6.63;;
2542;SDS011;1116;51.502;7.414;2024-03-17T03:21:45;8.20;;;6.30;;
2542;SDS011;1116;51.502;7.414;2024-03-17T03:24:11;7.10;;;6.17;;
2542;SDS011;1116;51.502;7.414;2024-03-17T03:26:41;7.50;;;6.10;;
2542;SDS011;1116;51.502;7.414;2024-03-17T03:29:12;11.90;;;6.63;;
2542;SDS011;1116;51.502;7.414;2024-03-17T03:31:42;8.27;;;6.43;;
2542;SDS011;1116;51.502;7.414;2024-03-17T03:34:11;8.17;;;6.13;;
2542;SDS011;1116;51.502;7.414;2024-03-17T03:36:40;8.77;;;6.77;;
2542;SDS011;1116;51.502;7.414;2024-03-17T03:39:09;9.80;;;6.50;;
2542;SDS011;1116;51.502;7.414;2024-03-17T03:41:39;7.67;;;6.27;;
2542;SDS011;1116;51.502;7.414;2024-03-17T03:44:08;9.77;;;6.33;;
2542;SDS011;1116;51.502;7.414;2024-03-17T03:46:41;9.57;;;6.60;;
2542;SDS011;1116;51.502;7.414;2024-03-17T03:49:10;7.60;;;6.37;;
2542;SDS011;1116;51.502;7.414;2024-03-17T03:51:39;7.93;;;6.80;;
2542;SDS011;1116;51.502;7.414;2024-03-17T03:54:08;6.80;;;6.00;;
2542;SDS011;1116;51.502;7.414;2024-03-17T03:56:37;10.20;;;6.33;;
2542;SDS011;1116;51.502;7.414;2024-03-17T03:59:06;9.73;;;7.00;;
2542;SDS011;1116;51.502;7.414;2024-03-17T04:01:35;8.40;;;6.57;;
2542;SDS011;1116;51.502;7.414;2024-03-17T04:04:06;7.23;;;5.80;;
2542;SDS011;1116;51.502;7.414;2024-03-17T04:06:35;10.70;;;7.80;;
2542;SDS011;1116;51.502;7.414;2024-03-17T04:09:04;9.17;;;6.40;;
2542;SDS011;1116;51.502;7.414;2024-03-17T04:11:34;8.20;;;6.23;;
2542;SDS011;1116;51.502;7.414;2024-03-17T04:14:03;8.60;;;7.00;;
2542;SDS011;1116;51.502;7.414;2024-03-17T04:16:33;8.70;;;6.97;;
2542;SDS011;1116;51.502;7.414;2024-03-17T04:19:02;12.50;;;7.47;;
2542;SDS011;1116;51.502;7.414;2024-03-17T04:21:34;9.10;;;7.17;;
2542;SDS011;1116;51.502;7.414;2024-03-17T04:24:03;8.93;;;7.00;;
2542;SDS011;1116;51.502;7.414;2024-03-17T04:26:32;10.97;;;7.67;;
2542;SDS011;1116;51.502;7.414;2024-03-17T04:29:01;8.13;;;6.90;;
2542;SDS011;1116;51.502;7.414;2024-03-17T04:31:30;10.33;;;6.60;;
2542;SDS011;1116;51.502;7.414;2024-03-17T04:33:59;10.43;;;6.73;;
2542;SDS011;1116;51.502;7.414;2024-03-17T04:36:28;10.57;;;6.93;;
2542;SDS011;1116;51.502;7.414;2024-03-17T04:39:00;8.77;;;7.00;;
2542;SDS011;1116;51.502;7.414;2024-03-17T04:41:29;11.27;;;6.97;;
2542;SDS011;1116;51.502;7.414;2024-03-17T04:43:58;8.20;;;7.00;;
2542;SDS011;1116;51.502;7.414;2024-03-17T04:46:27;7.30;;;6.30;;
2542;SDS011;1116;51.502;7.414;2024-03-17T04:48:56;8.70;;;7.10;;
2542;SDS011;1116;51.502;7.414;2024-03-17T04:51:25;9.73;;;7.20;;
2542;SDS011;1116;51.502;7.414;2024-03-17T04:53:54;10.23;;;7.43;;
2542;SDS011;1116;51.502;7.414;2024-03-17T04:56:25;10.20;;;7.77;;
2542;SDS011;1116;51.502;7.414;2024-03-17T04:58:54;11.67;;;8.10;;
2542;SDS011;1116;51.502;7.414;2024-03-17T05:01:24;12.00;;;7.83;;
2542;SDS011;1116;51.502;7.414;2024-03-17T05:03:53;11.90;;;8.57;;
2542;SDS011;1116;51.502;7.414;2024-03-17T05:06:22;9.23;;;7.23;;
2542;SDS011;1116;51.502;7.414;2024-03-17T05:08:51;12.50;;;8.63;;
2542;SDS011;1116;51.502;7.414;2024-03-17T05:11:20;15.70;;;8.23;;
2542;SDS011;1116;51.502;7.414;2024-03-17T05:13:52;11.60;;;8.67;;
2542;SDS011;1116;51.502;7.414;2024-03-17T05:16:22;12.27;;;7.97;;
2542;SDS011;1116;51.502;7.414;2024-03-17T05:18:54;11.40;;;7.20;;
2542;SDS011;1116;51.502;7.414;2024-03-17T05:21:23;12.40;;;7.40;;
2542;SDS011;1116;51.502;7.414;2024-03-17T05:23:55;13.90;;;8.40;;
2542;SDS011;1116;51.502;7.414;2024-03-17T05:26:25;12.03;;;7.60;;
2542;SDS011;1116;51.502;7.414;2024-03-17T05:28:58;9.03;;;7.13;;
2542;SDS011;1116;51.502;7.414;2024-03-17T05:31:27;11.30;;;7.93;;
2542;SDS011;1116;51.502;7.414;2024-03-17T05:33:57;10.90;;;7.27;;
2542;SDS011;1116;51.502;7.414;2024-03-17T05:36:26;10.33;;;7.40;;
2542;SDS011;1116;51.502;7.414;2024-03-17T05:38:57;10.20;;;7.90;;
2542;SDS011;1116;51.502;7.414;2024-03-17T05:41:27;10.17;;;8.00;;
2542;SDS011;1116;51.502;7.414;2024-03-17T05:43:59;13.73;;;8.27;;
2542;SDS011;1116;51.502;7.414;2024-03-17T05:46:29;17.43;;;8.73;;
2542;SDS011;1116;51.502;7.414;2024-03-17T05:48:58;14.73;;;8.70;;
2542;SDS011;1116;51.502;7.414;2024-03-17T05:51:28;15.07;;;10.10;;
2542;SDS011;1116;51.502;7.414;2024-03-17T05:53:57;12.33;;;9.00;;
2542;SDS011;1116;51.502;7.414;2024-03-17T05:56:26;15.27;;;9.83;;
2542;SDS011;1116;51.502;7.414;2024-03-17T05:58:55;15.10;;;9.80;;
2542;SDS011;1116;51.502;7.414;2024-03-17T06:01:26;13.60;;;9.77;;
2542;SDS011;1116;51.502;7.414;2024-03-17T06:03:55;14.27;;;10.40;;
2542;SDS011;1116;51.502;7.414;2024-03-17T06:06:25;16.47;;;10.40;;
2542;SDS011;1116;51.502;7.414;2024-03-17T06:08:54;17.30;;;10.87;;
2542;SDS011;1116;51.502;7.414;2024-03-17T06:11:22;17.17;;;11.20;;
2542;SDS011;1116;51.502;7.414;2024-03-17T06:13:51;16.33;;;11.50;;
2542;SDS011;1116;51.502;7.414;2024-03-17T06:16:20;19.40;;;11.53;;
2542;SDS011;1116;51.502;7.414;2024-03-17T06:18:52;16.10;;;11.70;;
2542;SDS011;1116;51.502;7.414;2024-03-17T06:21:21;17.90;;;12.47;;
2542;SDS011;1116;51.502;7.414;2024-03-17T06:23:51;17.47;;;11.03;;
2542;SDS011;1116;51.502;7.414;2024-03-17T06:26:20;18.33;;;12.00;;
2542;SDS011;1116;51.502;7.414;2024-03-17T06:28:49;17.60;;;11.10;;
2542;SDS011;1116;51.502;7.414;2024-03-17T06:31:18;17.90;;;10.90;;
2542;SDS011;1116;51.502;7.414;2024-03-17T06:33:47;17.40;;;11.63;;
2542;SDS011;1116;51.502;7.414;2024-03-17T06:36:19;16.43;;;11.30;;
2542;SDS011;1116;51.502;7.414;2024-03-17T06:38:48;15.73;;;11.70;;
2542;SDS011;1116;51.502;7.414;2024-03-17T06:41:20;18.87;;;11.67;;
2542;SDS011;1116;51.502;7.414;2024-03-17T06:43:49;19.47;;;12.70;;
2542;SDS011;1116;51.502;7.414;2024-03-17T06:46:18;14.70;;;11.47;;
2542;SDS011;1116;51.502;7.414;2024-03-17T06:48:47;16.00;;;11.83;;
2542;SDS011;1116;51.502;7.414;2024-03-17T06:51:28;22.30;;;11.47;;
2542;SDS011;1116;51.502;7.414;2024-03-17T06:53:56;18.20;;;11.77;;
2542;SDS011;1116;51.502;7.414;2024-03-17T06:56:25;15.03;;;10.80;;
2542;SDS011;1116;51.502;7.414;2024-03-17T06:58:54;14.93;;;10.83;;
2542;SDS011;1116;51.502;7.414;2024-03-17T07:01:23;13.93;;;10.70;;
2542;SDS011;1116;51.502;7.414;2024-03-17T07:03:53;14.40;;;10.70;;
2542;SDS011;1116;51.502;7.414;2024-03-17T07:06:24;15.03;;;10.60;;
2542;SDS011;1116;51.502;7.414;2024-03-17T07:08:53;15.03;;;10.77;;
2542;SDS011;1116;51.502;7.414;2024-03-17T07:11:22;13.13;;;10.33;;
2542;SDS011;1116;51.502;7.414;2024-03-17T07:13:51;14.00;;;10.07;;
2542;SDS011;1116;51.502;7.414;2024-03-17T07:16:20;14.10;;;9.63;;
2542;SDS011;1116;51.502;7.414;2024-03-17T07:18:51;14.20;;;9.93;;
2542;SDS011;1116;51.502;7.414;2024-03-17T07:21:24;13.17;;;8.93;;
2542;SDS011;1116;51.502;7.414;2024-03-17T07:23:52;11.90;;;8.80;;
2542;SDS011;1116;51.502;7.414;2024-03-17T07:26:23;12.30;;;9.40;;
2542;SDS011;1116;51.502;7.414;2024-03-17T07:28:52;10.87;;;8.40;;
2542;SDS011;1116;51.502;7.414;2024-03-17T07:31:22;10.67;;;8.50;;
2542;SDS011;1116;51.502;7.414;2024-03-17T07:33:51;11.03;;;7.70;;
2542;SDS011;1116;51.502;7.414;2024-03-17T07:36:20;8.70;;;7.50;;
2542;SDS011;1116;51.502;7.414;2024-03-17T07:38:52;10.37;;;8.10;;
2542;SDS011;1116;51.502;7.414;2024-03-17T07:41:21;10.20;;;7.57;;
2542;SDS011;1116;51.502;7.414;2024-03-17T07:43:50;9.00;;;7.53;;
2542;SDS011;1116;51.502;7.414;2024-03-17T07:46:19;8.33;;;7.00;;
2542;SDS011;1116;51.502;7.414;2024-03-17T07:48:48;9.50;;;6.80;;
2542;SDS011;1116;51.502;7.414;2024-03-17T07:51:17;8.80;;;6.70;;
2542;SDS011;1116;51.502;7.414;2024-03-17T07:53:47;6.57;;;5.87;;
2542;SDS011;1116;51.502;7.414;2024-03-17T07:56:20;7.00;;;5.73;;
2542;SDS011;1116;51.502;7.414;2024-03-17T07:58:49;7.07;;;5.73;;
2542;SDS011;1116;51.502;7.414;2024-03-17T08:01:18;5.80;;;5.20;;
2542;SDS011;1116;51.502;7.414;2024-03-17T08:03:47;6.93;;;6.10;;
2542;SDS011;1116;51.502;7.414;2024-03-17T08:06:21;6.37;;;5.70;;
2542;SDS011;1116;51.502;7.414;2024-03-17T08:08:50;6.10;;;5.50;;
2542;SDS011;1116;51.502;7.414;2024-03-17T08:11:22;5.43;;;4.93;;
2542;SDS011;1116;51.502;7.414;2024-03-17T08:13:51;8.30;;;6.07;;
2542;SDS011;1116;51.502;7.414;2024-03-17T08:16:20;8.07;;;5.83;;
2542;SDS011;1116;51.502;7.414;2024-03-17T08:18:49;7.33;;;5.80;;
2542;SDS011;1116;51.502;7.414;2024-03-17T08:21:18;6.53;;;5.60;;
2542;SDS011;1116;51.502;7.414;2024-03-17T08:23:47;6.50;;;5.83;;
2542;SDS011;1116;51.502;7.414;2024-03-17T08:26:17;5.37;;;4.87;;
2542;SDS011;1116;51.502;7.414;2024-03-17T08:28:48;5.90;;;5.30;;
2542;SDS011;1116;51.502;7.414;2024-03-17T08:31:17;5.53;;;5.03;;
2542;SDS011;1116;51.502;7.414;2024-03-17T08:33:46;7.07;;;5.03;;
2542;SDS011;1116;51.502;7.414;2024-03-17T08:36:16;7.50;;;5.50;;
2542;SDS011;1116;51.502;7.414;2024-03-17T08:38:46;7.33;;;5.67;;
2542;SDS011;1116;51.502;7.414;2024-03-17T08:41:16;6.10;;;5.50;;
2542;SDS011;1116;51.502;7.414;2024-03-17T08:43:44;5.77;;;5.13;;
2542;SDS011;1116;51.502;7.414;2024-03-17T08:46:16;6.77;;;5.40;;
2542;SDS011;1116;51.502;7.414;2024-03-17T08:48:45;6.00;;;5.40;;
2542;SDS011;1116;51.502;7.414;2024-03-17T08:51:14;7.10;;;5.50;;
2542;SDS011;1116;51.502;7.414;2024-03-17T08:53:43;9.03;;;5.80;;
2542;SDS011;1116;51.502;7.414;2024-03-17T08:56:12;6.37;;;5.70;;
2542;SDS011;1116;51.502;7.414;2024-03-17T08:58:41;6.17;;;5.50;;
2542;SDS011;1116;51.502;7.414;2024-03-17T09:01:13;6.80;;;5.63;;
2542;SDS011;1116;51.502;7.414;2024-03-17T09:03:43;8.67;;;6.10;;
2542;SDS011;1116;51.502;7.414;2024-03-17T09:06:15;7.57;;;5.10;;
2542;SDS011;1116;51.502;7.414;2024-03-17T09:08:46;7.60;;;5.30;;
2542;SDS011;1116;51.502;7.414;2024-03-17T09:11:15;5.30;;;4.80;;
2542;SDS011;1116;51.502;7.414;2024-03-17T09:13:43;6.60;;;5.87;;
2542;SDS011;1116;51.502;7.414;2024-03-17T09:16:15;7.23;;;5.87;;
2542;SDS011;1116;51.502;7.414;2024-03-17T09:18:44;5.53;;;5.03;;
2542;SDS011;1116;51.502;7.414;2024-03-17T09:21:14;8.33;;;5.73;;
2542;SDS011;1116;51.502;7.414;2024-03-17T09:23:43;6.60;;;5.90;;
2542;SDS011;1116;51.502;7.414;2024-03-17T09:26:12;6.80;;;5.33;;
2542;SDS011;1116;51.502;7.414;2024-03-17T09:28:43;5.90;;;5.40;;
2542;SDS011;1116;51.502;7.414;2024-03-17T09:31:12;6.30;;;5.10;;
2542;SDS011;1116;51.502;7.414;2024-03-17T09:33:43;6.17;;;4.93;;
2542;SDS011;1116;51.502;7.414;2024-03-17T09:36:12;6.53;;;4.33;;
2542;SDS011;1116;51.502;7.414;2024-03-17T09:38:41;6.07;;;4.90;;
2542;SDS011;1116;51.502;7.414;2024-03-17T09:41:16;7.20;;;5.50;;
2542;SDS011;1116;51.502;7.414;2024-03-17T09:43:50;4.70;;;4.30;;
2542;SDS011;1116;51.502;7.414;2024-03-17T09:46:25;5.60;;;4.67;;
2542;SDS011;1116;51.502;7.414;2024-03-17T09:48:55;6.53;;;4.60;;
2542;SDS011;1116;51.502;7.414;2024-03-17T09:51:24;5.73;;;4.50;;
2542;SDS011;1116;51.502;7.414;2024-03-17T09:53:53;4.53;;;4.13;;
2542;SDS011;1116;51.502;7.414;2024-03-17T09:56:22;4.57;;;4.17;;
2542;SDS011;1116;51.502;7.414;2024-03-17T09:58:51;5.17;;;4.40;;
2542;SDS011;1116;51.502;7.414;2024-03-17T10:01:20;4.50;;;4.10;;
2542;SDS011;1116;51.502;7.414;2024-03-17T10:03:53;5.70;;;4.07;;
2542;SDS011;1116;51.502;7.414;2024-03-17T10:06:25;5.47;;;4.50;;
2542;SDS011;1116;51.502;7.414;2024-03-17T10:08:56;6.53;;;4.27;;
2542;SDS011;1116;51.502;7.414;2024-03-17T10:11:32;4.60;;;4.10;;
2542;SDS011;1116;51.502;7.414;2024-03-17T10:14:02;4.97;;;4.47;;
2542;SDS011;1116;51.502;7.414;2024-03-17T10:16:34;4.97;;;4.20;;
2542;SDS011;1116;51.502;7.414;2024-03-17T10:19:10;4.80;;;3.97;;
2542;SDS011;1116;51.502;7.414;2024-03-17T10:21:41;5.40;;;4.57;;
2542;SDS011;1116;51.502;7.414;2024-03-17T10:24:13;5.83;;;3.80;;
2542;SDS011;1116;51.502;7.414;2024-03-17T10:26:48;4.33;;;3.93;;
2542;SDS011;1116;51.502;7.414;2024-03-17T10:29:22;5.73;;;3.50;;
2542;SDS011;1116;51.502;7.414;2024-03-17T10:31:53;5.43;;;3.97;;
2542;SDS011;1116;51.502;7.414;2024-03-17T10:34:26;5.90;;;3.90;;
2542;SDS011;1116;51.502;7.414;2024-03-17T10:37:05;6.40;;;4.30;;
2542;SDS011;1116;51.502;7.414;2024-03-17T10:39:36;7.63;;;4.63;;
2542;SDS011;1116;51.502;7.414;2024-03-17T10:42:07;4.90;;;4.23;;
2542;SDS011;1116;51.502;7.414;2024-03-17T10:44:37;4.30;;;3.97;;
2542;SDS011;1116;51.502;7.414;2024-03-17T10:47:14;4.90;;;4.33;;
2542;SDS011;1116;51.502;7.414;2024-03-17T10:49:52;4.17;;;3.70;;
2542;SDS011;1116;51.502;7.414;2024-03-17T10:52:22;5.17;;;4.23;;
2542;SDS011;1116;51.502;7.414;2024-03-17T10:54:53;5.53;;;4.03;;
2542;SDS011;1116;51.502;7.414;2024-03-17T10:57:27;6.80;;;4.47;;
2542;SDS011;1116;51.502;7.414;2024-03-17T11:00:00;4.00;;;3.43;;
2542;SDS011;1116;51.502;7.414;2024-03-17T11:02:34;4.33;;;3.93;;
2542;SDS011;1116;51.502;7.414;2024-03-17T11:05:07;5.63;;;4.00;;
2542;SDS011;1116;51.502;7.414;2024-03-17T11:07:42;7.40;;;3.50;;
2542;SDS011;1116;51.502;7.414;2024-03-17T11:10:18;5.90;;;4.20;;
2542;SDS011;1116;51.502;7.414;2024-03-17T11:12:49;4.30;;;3.30;;
2542;SDS011;1116;51.502;7.414;2024-03-17T11:23:57;4.90;;;3.93;;
2542;SDS011;1116;51.502;7.414;2024-03-17T11:26:29;4.40;;;3.87;;
2542;SDS011;1116;51.502;7.414;2024-03-17T11:29:00;4.83;;;4.33;;
2542;SDS011;1116;51.502;7.414;2024-03-17T11:31:42;4.57;;;4.10;;
2542;SDS011;1116;51.502;7.414;2024-03-17T11:36:58;5.27;;;4.10;;
2542;SDS011;1116;51.502;7.414;2024-03-17T11:42:21;3.97;;;3.57;;
2542;SDS011;1116;51.502;7.414;2024-03-17T11:45:01;4.33;;;3.90;;
2542;SDS011;1116;51.502;7.414;2024-03-17T11:47:38;4.17;;;3.77;;
2542;SDS011;1116;51.502;7.414;2024-03-17T11:50:08;5.30;;;4.57;;
2542;SDS011;1116;51.502;7.414;2024-03-17T11:52:40;4.20;;;3.80;;
2542;SDS011;1116;51.502;7.414;2024-03-17T11:55:17;5.20;;;4.00;;
2542;SDS011;1116;51.502;7.414;2024-03-17T11:57:44;4.73;;;3.70;;
2542;SDS011;1116;51.502;7.414;2024-03-17T12:00:19;4.53;;;4.10;;
2542;SDS011;1116;51.502;7.414;2024-03-17T12:02:47;5.30;;;4.37;;
2542;SDS011;1116;51.502;7.414;2024-03-17T12:05:17;6.27;;;4.10;;
2542;SDS011;1116;51.502;7.414;2024-03-17T12:07:46;4.33;;;3.43;;
2542;SDS011;1116;51.502;7.414;2024-03-17T12:10:16;5.97;;;4.13;;
2542;SDS011;1116;51.502;7.414;2024-03-17T12:12:46;6.67;;;4.80;;
2542;SDS011;1116;51.502;7.414;2024-03-17T12:15:18;4.70;;;4.20;;
2542;SDS011;1116;51.502;7.414;2024-03-17T12:17:45;4.50;;;3.57;;
2542;SDS011;1116;51.502;7.414;2024-03-17T12:20:17;4.50;;;3.57;;
2542;SDS011;1116;51.502;7.414;2024-03-17T12:22:47;4.13;;;3.73;;
2542;SDS011;1116;51.502;7.414;2024-03-17T12:25:17;4.47;;;3.50;;
2542;SDS011;1116;51.502;7.414;2024-03-17T12:27:46;5.20;;;3.57;;
2542;SDS011;1116;51.502;7.414;2024-03-17T12:30:15;6.20;;;4.20;;
2542;SDS011;1116;51.502;7.414;2024-03-17T12:32:43;4.63;;;4.23;;
2542;SDS011;1116;51.502;7.414;2024-03-17T12:35:13;5.60;;;4.13;;
2542;SDS011;1116;51.502;7.414;2024-03-17T12:37:43;4.50;;;4.10;;
2542;SDS011;1116;51.502;7.414;2024-03-17T12:40:20;7.87;;;4.50;;
2542;SDS011;1116;51.502;7.414;2024-03-17T12:42:48;4.00;;;3.60;;
2542;SDS011;1116;51.502;7.414;2024-03-17T12:45:21;6.90;;;3.70;;
2542;SDS011;1116;51.502;7.414;2024-03-17T12:47:48;4.83;;;3.90;;
2542;SDS011;1116;51.502;7.414;2024-03-17T12:50:20;5.37;;;3.60;;
2542;SDS011;1116;51.502;7.414;2024-03-17T12:52:52;4.90;;;3.97;;
2542;SDS011;1116;51.502;7.414;2024-03-17T12:55:25;4.60;;;4.20;;
2542;SDS011;1116;51.502;7.414;2024-03-17T12:58:07;5.47;;;4.37;;
2542;SDS011;1116;51.502;7.414;2024-03-17T13:00:56;5.17;;;3.80;;
2542;SDS011;1116;51.502;7.414;2024-03-17T13:03:27;3.87;;;3.30;;
2542;SDS011;1116;51.502;7.414;2024-03-17T13:05:59;3.93;;;3.53;;
2542;SDS011;1116;51.502;7.414;2024-03-17T13:08:28;4.90;;;3.70;;
2542;SDS011;1116;51.502;7.414;2024-03-17T13:11:00;5.50;;;3.93;;
2542;SDS011;1116;51.502;7.414;2024-03-17T13:13:29;3.90;;;3.33;;
2542;SDS011;1116;51.502;7.414;2024-03-17T13:15:58;3.90;;;3.50;;
2542;SDS011;1116;51.502;7.414;2024-03-17T13:18:28;5.67;;;4.33;;
2542;SDS011;1116;51.502;7.414;2024-03-17T13:20:57;4.63;;;3.57;;
2542;SDS011;1116;51.502;7.414;2024-03-17T13:23:26;5.47;;;3.23;;
2542;SDS011;1116;51.502;7.414;2024-03-17T13:25:55;4.60;;;3.80;;
2542;SDS011;1116;51.502;7.414;2024-03-17T13:28:27;3.83;;;3.47;;
2542;SDS011;1116;51.502;7.414;2024-03-17T13:30:57;5.77;;;3.50;;
2542;SDS011;1116;51.502;7.414;2024-03-17T13:33:23;7.60;;;4.70;;
2542;SDS011;1116;51.502;7.414;2024-03-17T13:35:52;5.00;;;3.73;;
2542;SDS011;1116;51.502;7.414;2024-03-17T13:38:21;3.97;;;3.57;;
2542;SDS011;1116;51.502;7.414;2024-03-17T13:40:50;6.20;;;3.10;;
2542;SDS011;1116;51.502;7.414;2024-03-17T13:43:19;4.93;;;3.70;;
2542;SDS011;1116;51.502;7.414;2024-03-17T13:45:50;3.50;;;3.20;;
2542;SDS011;1116;51.502;7.414;2024-03-17T13:48:19;6.60;;;3.50;;
2542;SDS011;1116;51.502;7.414;2024-03-17T13:50:48;6.73;;;3.90;;
2542;SDS011;1116;51.502;7.414;2024-03-17T13:53:18;3.17;;;2.70;;
2542;SDS011;1116;51.502;7.414;2024-03-17T13:55:49;3.60;;;2.80;;
2542;SDS011;1116;51.502;7.414;2024-03-17T13:58:17;4.00;;;2.83;;
2542;SDS011;1116;51.502;7.414;2024-03-17T14:00:46;5.23;;;3.40;;
2542;SDS011;1116;51.502;7.414;2024-03-17T14:03:18;3.80;;;2.87;;
2542;SDS011;1116;51.502;7.414;2024-03-17T14:05:47;3.77;;;3.00;;
2542;SDS011;1116;51.502;7.414;2024-03-17T14:08:16;4.30;;;3.20;;
2542;SDS011;1116;51.502;7.414;2024-03-17T14:10:45;3.53;;;2.87;;
2542;SDS011;1116;51.502;7.414;2024-03-17T14:13:13;2.93;;;2.60;;
2542;SDS011;1116;51.502;7.414;2024-03-17T14:15:43;5.03;;;3.30;;
2542;SDS011;1116;51.502;7.414;2024-03-17T14:18:14;3.60;;;2.70;;
2542;SDS011;1116;51.502;7.414;2024-03-17T14:20:43;4.87;;;3.13;;
2542;SDS011;1116;51.502;7.414;2024-03-17T14:23:12;4.87;;;3.97;;
2542;SDS011;1116;51.502;7.414;2024-03-17T14:25:41;5.00;;;2.80;;
2542;SDS011;1116;51.502;7.414;2024-03-17T14:28:10;3.40;;;3.00;;
2542;SDS011;1116;51.502;7.414;2024-03-17T14:30:39;4.57;;;3.20;;
2542;SDS011;1116;51.502;7.414;2024-03-17T14:33:07;5.20;;;4.10;;
2542;SDS011;1116;51.502;7.414;2024-03-17T14:35:39;3.60;;;2.70;;
2542;SDS011;1116;51.502;7.414;2024-03-17T14:38:08;3.13;;;2.83;;
2542;SDS011;1116;51.502;7.414;2024-03-17T14:40:40;3.20;;;2.90;;
2542;SDS011;1116;51.502;7.414;2024-03-17T14:43:09;3.13;;;2.43;;
2542;SDS011;1116;51.502;7.414;2024-03-17T14:45:37;3.83;;;2.33;;
2542;SDS011;1116;51.502;7.414;2024-03-17T14:48:07;2.50;;;2.30;;
2542;SDS011;1116;51.502;7.414;2024-03-17T14:50:39;3.63;;;2.17;;
2542;SDS011;1116;51.502;7.414;2024-03-17T14:53:08;2.40;;;2.20;;
2542;SDS011;1116;51.502;7.414;2024-03-17T14:55:37;7.60;;;2.17;;
2542;SDS011;1116;51.502;7.414;2024-03-17T14:58:06;2.90;;;2.30;;
2542;SDS011;1116;51.502;7.414;2024-03-17T15:00:35;3.40;;;2.07;;
2542;SDS011;1116;51.502;7.414;2024-03-17T15:03:04;4.23;;;2.30;;
2542;SDS011;1116;51.502;7.414;2024-03-17T15:05:34;4.30;;;2.40;;
2542;SDS011;1116;51.502;7.414;2024-03-17T15:08:06;2.87;;;2.30;;
2542;SDS011;1116;51.502;7.414;2024-03-17T15:10:35;3.43;;;2.50;;
2542;SDS011;1116;51.502;7.414;2024-03-17T15:13:04;3.33;;;2.27;;
2542;SDS011;1116;51.502;7.414;2024-03-17T15:15:35;2.70;;;2.50;;
2542;SDS011;1116;51.502;7.414;2024-03-17T15:18:04;2.10;;;1.90;;
2542;SDS011;1116;51.502;7.414;2024-03-17T15:20:34;3.10;;;2.80;;
2542;SDS011;1116;51.502;7.414;2024-03-17T15:23:06;3.00;;;2.30;;
2542;SDS011;1116;51.502;7.414;2024-03-17T15:25:35;3.43;;;2.47;;
2542;SDS011;1116;51.502;7.414;2024-03-17T15:28:05;4.53;;;2.47;;
2542;SDS011;1116;51.502;7.414;2024-03-17T15:30:34;3.30;;;2.30;;
2542;SDS011;1116;51.502;7.414;2024-03-17T15:33:03;3.47;;;2.17;;
2542;SDS011;1116;51.502;7.414;2024-03-17T15:35:32;3.03;;;2.30;;
2542;SDS011;1116;51.502;7.414;2024-03-17T15:38:03;3.20;;;2.13;;
2542;SDS011;1116;51.502;7.414;2024-03-17T15:40:34;3.27;;;2.53;;